Time;durP1;ratioP1;P1;durP2;ratioP2;P2;SDS_P1;SDS_P2;PMS_P1;PMS_P2;Temp;Humidity;BMP_temperature;BMP_pressure;BME280_temperature;BME280_humidity;BME280_pressure;Samples;Min_cycle;Max_cycle;Signal;HPM_P1;HPM_P2
2022/08/27 00:01:12;;;;;;;8.60;5.70;;;20.50;99.90;;;;;;5098565;28;20861;-70
2022/08/27 00:03:39;;;;;;;8.23;6.50;;;20.60;99.90;;;;;;5099434;28;20452;-70
2022/08/27 00:06:07;;;;;;;12.53;10.07;;;20.70;99.90;;;;;;5096927;28;20473;-70
2022/08/27 00:08:34;;;;;;;8.70;7.00;;;20.60;99.90;;;;;;5098884;28;20481;-70
2022/08/27 00:11:01;;;;;;;9.40;8.30;;;20.60;99.90;;;;;;5097801;28;20873;-70
2022/08/27 00:13:28;;;;;;;8.17;7.33;;;20.60;99.90;;;;;;5097962;28;20453;-71
2022/08/27 00:15:56;;;;;;;10.67;7.80;;;20.50;99.90;;;;;;5099361;28;20485;-71
2022/08/27 00:18:23;;;;;;;8.47;6.67;;;20.50;99.90;;;;;;5098299;28;20454;-70
2022/08/27 00:20:51;;;;;;;8.93;5.73;;;20.30;99.90;;;;;;5098195;28;20449;-70
2022/08/27 00:23:17;;;;;;;6.00;5.40;;;20.20;99.90;;;;;;5096608;28;20457;-71
2022/08/27 00:25:44;;;;;;;8.37;6.53;;;20.00;99.90;;;;;;5098122;28;20477;-71
2022/08/27 00:28:12;;;;;;;7.77;6.80;;;19.90;99.90;;;;;;5096650;28;20580;-71
2022/08/27 00:30:39;;;;;;;8.13;6.53;;;19.80;99.90;;;;;;5098293;28;20469;-72
2022/08/27 00:33:07;;;;;;;9.30;7.53;;;19.80;99.90;;;;;;5096557;28;20458;-73
2022/08/27 00:35:34;;;;;;;9.97;6.50;;;19.60;99.90;;;;;;5098505;28;20454;-72
2022/08/27 00:38:01;;;;;;;8.63;7.13;;;19.60;99.90;;;;;;5097190;28;20503;-72
2022/08/27 00:40:28;;;;;;;9.07;8.17;;;19.50;99.90;;;;;;5098353;28;20445;-71
2022/08/27 00:42:55;;;;;;;9.40;8.40;;;19.60;99.90;;;;;;5098750;28;20567;-71
2022/08/27 00:45:24;;;;;;;9.97;8.97;;;19.60;99.90;;;;;;5096949;28;20912;-71
2022/08/27 00:47:54;;;;;;;8.30;7.13;;;19.70;99.90;;;;;;5098059;28;20485;-71
2022/08/27 00:50:29;;;;;;;6.77;6.10;;;19.70;99.90;;;;;;5097214;28;20460;-70
2022/08/27 00:52:59;;;;;;;7.00;6.23;;;19.80;99.90;;;;;;5098271;28;20446;-71
2022/08/27 00:55:29;;;;;;;10.87;8.30;;;19.90;99.90;;;;;;5098080;28;20454;-71
2022/08/27 00:58:04;;;;;;;7.93;7.10;;;19.90;99.90;;;;;;5098186;28;20722;-71
2022/08/27 01:00:31;;;;;;;10.00;8.30;;;19.90;99.90;;;;;;5098342;28;20486;-71
2022/08/27 01:02:58;;;;;;;7.63;6.93;;;19.90;99.90;;;;;;5096657;28;20935;-73
2022/08/27 01:05:27;;;;;;;10.37;8.10;;;20.00;99.90;;;;;;5098329;28;20546;-71
2022/08/27 01:08:01;;;;;;;10.50;8.23;;;20.00;99.90;;;;;;5098367;28;20929;-72
2022/08/27 01:10:29;;;;;;;9.20;7.30;;;20.20;99.90;;;;;;5097327;28;20829;-71
2022/08/27 01:12:57;;;;;;;13.83;8.67;;;20.20;99.90;;;;;;5098915;28;20457;-71
2022/08/27 01:15:26;;;;;;;9.50;8.50;;;20.10;99.90;;;;;;5098340;28;20442;-71
2022/08/27 01:17:54;;;;;;;8.60;6.90;;;20.00;99.90;;;;;;5097749;28;20544;-72
2022/08/27 01:20:24;;;;;;;11.40;9.17;;;20.00;99.90;;;;;;5095596;28;20521;-71
2022/08/27 01:22:59;;;;;;;11.17;7.87;;;19.70;99.90;;;;;;5096739;28;20449;-72
2022/08/27 01:25:28;;;;;;;13.30;9.37;;;19.70;99.90;;;;;;5097150;28;20433;-72
2022/08/27 01:27:58;;;;;;;10.97;7.17;;;19.60;99.90;;;;;;5097750;28;20538;-72
2022/08/27 01:30:25;;;;;;;11.20;8.83;;;19.50;99.90;;;;;;5098165;28;20865;-71
2022/08/27 01:32:53;;;;;;;12.40;9.77;;;19.40;99.90;;;;;;5097589;28;20442;-71
2022/08/27 01:35:22;;;;;;;10.77;7.97;;;19.30;99.90;;;;;;5095790;28;20483;-71
2022/08/27 01:37:52;;;;;;;13.70;8.70;;;19.30;99.90;;;;;;5097672;28;20442;-71
2022/08/27 01:40:20;;;;;;;10.80;7.13;;;19.40;99.90;;;;;;5097039;28;20449;-71
2022/08/27 01:42:51;;;;;;;10.17;6.90;;;19.40;99.90;;;;;;5097932;28;20507;-71
2022/08/27 01:45:21;;;;;;;13.17;10.30;;;19.60;99.90;;;;;;5095902;28;20511;-71
2022/08/27 01:47:48;;;;;;;10.17;7.93;;;19.60;99.90;;;;;;5097424;28;20520;-71
2022/08/27 01:50:19;;;;;;;10.83;8.10;;;19.60;99.90;;;;;;5095540;28;20446;-71
2022/08/27 01:52:46;;;;;;;12.00;9.00;;;19.60;99.90;;;;;;5098202;28;20446;-72
2022/08/27 01:55:17;;;;;;;10.93;8.20;;;19.60;99.90;;;;;;5095494;28;20907;-71
2022/08/27 01:57:45;;;;;;;11.60;7.53;;;19.70;99.90;;;;;;5097821;28;20442;-71
2022/08/27 02:00:19;;;;;;;10.07;8.57;;;19.80;99.90;;;;;;5095302;28;20556;-72
2022/08/27 02:02:46;;;;;;;8.37;7.43;;;19.80;99.90;;;;;;5098189;28;20437;-72
2022/08/27 02:05:15;;;;;;;11.73;9.00;;;19.90;99.90;;;;;;5096105;28;20489;-71
2022/08/27 02:07:43;;;;;;;10.27;8.73;;;19.90;99.90;;;;;;5097384;28;20807;-72
2022/08/27 02:10:14;;;;;;;10.93;8.17;;;19.90;99.90;;;;;;5096176;28;20458;-71
2022/08/27 02:12:41;;;;;;;9.60;8.60;;;20.00;99.90;;;;;;5097293;28;20686;-71
2022/08/27 02:15:09;;;;;;;11.93;8.10;;;20.10;99.90;;;;;;5094529;28;20506;-71
2022/08/27 02:17:38;;;;;;;10.40;8.40;;;20.10;99.90;;;;;;5097169;28;20485;-71
2022/08/27 02:20:08;;;;;;;13.27;10.03;;;20.20;99.90;;;;;;5095521;28;20510;-71
2022/08/27 02:22:35;;;;;;;10.97;9.23;;;20.30;99.90;;;;;;5096849;28;20544;-70
2022/08/27 02:25:03;;;;;;;11.57;10.30;;;20.30;99.90;;;;;;5095555;28;20511;-71
2022/08/27 02:27:30;;;;;;;11.03;8.00;;;20.40;99.90;;;;;;5096725;28;20446;-71
2022/08/27 02:29:57;;;;;;;10.10;8.57;;;20.40;99.90;;;;;;5099199;28;20449;-71
2022/08/27 02:32:24;;;;;;;12.43;9.37;;;20.40;99.90;;;;;;5103843;28;20441;-70
2022/08/27 02:34:55;;;;;;;12.07;9.73;;;20.40;99.90;;;;;;5102817;28;20506;-70
2022/08/27 02:37:22;;;;;;;10.53;8.30;;;20.40;99.90;;;;;;5104253;28;20445;-71
2022/08/27 02:39:49;;;;;;;13.03;10.00;;;20.40;99.90;;;;;;5102898;28;20448;-71
2022/08/27 02:42:16;;;;;;;10.97;9.67;;;20.40;99.90;;;;;;5102576;28;20506;-71
2022/08/27 02:44:43;;;;;;;9.37;7.70;;;20.30;99.90;;;;;;5100356;28;20456;-71
2022/08/27 02:47:10;;;;;;;11.93;9.30;;;20.30;99.90;;;;;;5102226;28;20494;-72
2022/08/27 02:49:38;;;;;;;10.33;9.20;;;20.30;99.90;;;;;;5101093;28;20485;-71
2022/08/27 02:52:06;;;;;;;10.07;8.60;;;20.30;99.90;;;;;;5103162;28;20896;-71
2022/08/27 02:54:33;;;;;;;11.30;8.17;;;20.40;99.90;;;;;;5100672;28;20461;-71
2022/08/27 02:57:00;;;;;;;12.73;11.13;;;20.40;99.90;;;;;;5101969;28;20536;-71
2022/08/27 02:59:27;;;;;;;10.43;8.43;;;20.40;99.90;;;;;;5101825;28;20520;-71
2022/08/27 03:01:54;;;;;;;11.60;8.30;;;20.20;99.90;;;;;;5102558;28;20827;-71
2022/08/27 03:04:22;;;;;;;9.60;8.20;;;20.20;99.90;;;;;;5101196;28;20514;-70
2022/08/27 03:06:49;;;;;;;10.87;7.63;;;20.10;99.90;;;;;;5102009;28;20465;-70
2022/08/27 03:09:18;;;;;;;10.63;8.10;;;19.90;99.90;;;;;;5101961;28;20941;-71
2022/08/27 03:11:44;;;;;;;10.63;7.83;;;20.00;99.90;;;;;;5103584;28;20449;-71
2022/08/27 03:14:12;;;;;;;11.03;8.23;;;20.00;99.90;;;;;;5100944;28;20829;-70
2022/08/27 03:16:39;;;;;;;13.77;8.83;;;19.90;99.90;;;;;;5102960;28;20849;-70
2022/08/27 03:19:06;;;;;;;9.60;8.43;;;19.90;99.90;;;;;;5101191;28;20457;-71
2022/08/27 03:21:35;;;;;;;11.87;8.17;;;19.80;99.90;;;;;;5103093;28;20437;-71
2022/08/27 03:24:04;;;;;;;9.50;6.93;;;19.80;99.90;;;;;;5100121;28;20846;-71
2022/08/27 03:26:32;;;;;;;9.47;7.07;;;19.80;99.90;;;;;;5101518;28;20456;-71
2022/08/27 03:28:59;;;;;;;11.33;7.10;;;19.70;99.90;;;;;;5099769;28;20517;-71
2022/08/27 03:31:28;;;;;;;9.93;7.60;;;19.70;99.90;;;;;;5101863;28;20870;-71
2022/08/27 03:33:57;;;;;;;8.80;7.47;;;19.60;99.90;;;;;;5102420;28;20449;-71
2022/08/27 03:36:24;;;;;;;7.93;6.70;;;19.60;99.90;;;;;;5103385;28;20442;-71
2022/08/27 03:38:51;;;;;;;9.20;5.90;;;19.60;99.90;;;;;;5103308;28;20510;-71
2022/08/27 03:41:18;;;;;;;5.90;5.30;;;19.60;99.90;;;;;;5098743;28;20476;-70
2022/08/27 03:43:47;;;;;;;5.83;4.50;;;19.60;99.90;;;;;;5099919;28;20901;-70
2022/08/27 03:46:15;;;;;;;5.90;4.57;;;19.80;99.90;;;;;;5098883;28;20489;-70
2022/08/27 03:48:42;;;;;;;7.63;5.00;;;19.80;99.90;;;;;;5099907;28;20484;-70
2022/08/27 03:51:13;;;;;;;6.27;4.80;;;19.80;99.90;;;;;;5098448;28;20453;-70
2022/08/27 03:53:42;;;;;;;7.77;4.60;;;19.70;99.90;;;;;;5099693;28;20514;-71
2022/08/27 03:56:10;;;;;;;8.47;6.70;;;19.70;99.90;;;;;;5098166;28;20506;-70
2022/08/27 03:58:38;;;;;;;9.30;6.50;;;19.70;99.90;;;;;;5100333;28;20499;-70
2022/08/27 04:01:07;;;;;;;6.40;5.60;;;19.60;99.90;;;;;;5098448;28;20885;-70
2022/08/27 04:03:34;;;;;;;8.50;5.87;;;19.60;99.90;;;;;;5098906;28;20499;-71
2022/08/27 04:06:01;;;;;;;10.10;5.73;;;19.60;99.90;;;;;;5097953;28;20488;-70
2022/08/27 04:08:28;;;;;;;6.47;5.87;;;19.70;99.90;;;;;;5099384;28;20521;-71
2022/08/27 04:10:55;;;;;;;7.30;5.60;;;19.80;99.90;;;;;;5097920;28;20506;-70
2022/08/27 04:13:24;;;;;;;7.73;6.17;;;19.70;99.90;;;;;;5098888;28;20507;-70
2022/08/27 04:15:53;;;;;;;5.83;5.00;;;19.90;99.90;;;;;;5097245;28;20503;-71
2022/08/27 04:18:21;;;;;;;9.40;6.53;;;19.90;99.90;;;;;;5099903;28;20446;-71
2022/08/27 04:20:51;;;;;;;7.23;6.37;;;19.90;99.90;;;;;;5098322;28;20817;-71
2022/08/27 04:23:18;;;;;;;7.87;6.90;;;19.80;99.90;;;;;;5099793;28;20454;-70
2022/08/27 04:25:45;;;;;;;8.37;7.50;;;19.70;99.90;;;;;;5097660;28;20519;-69
2022/08/27 04:28:14;;;;;;;11.47;8.90;;;19.80;99.90;;;;;;5098836;28;20926;-70
2022/08/27 04:30:43;;;;;;;9.87;8.17;;;19.90;99.90;;;;;;5097943;28;20518;-70
2022/08/27 04:33:10;;;;;;;18.07;12.53;;;20.00;99.90;;;;;;5098932;28;20445;-69
2022/08/27 04:35:38;;;;;;;15.93;11.50;;;19.90;99.90;;;;;;5096449;28;20477;-73
2022/08/27 04:38:06;;;;;;;14.33;10.90;;;19.90;99.90;;;;;;5097340;28;20774;-72
2022/08/27 04:43:15;;;;;;;17.33;12.00;;;20.00;99.90;;;;;;5096570;28;20788;-72
2022/08/27 04:45:44;;;;;;;14.40;12.53;;;20.00;99.90;;;;;;5096143;28;20472;-71
2022/08/27 04:48:11;;;;;;;13.70;11.67;;;20.00;99.90;;;;;;5098802;28;20532;-72
2022/08/27 04:50:42;;;;;;;15.83;12.77;;;19.90;99.90;;;;;;5096646;28;20537;-71
2022/08/27 04:53:09;;;;;;;18.53;12.17;;;20.00;99.90;;;;;;5096678;28;20539;-72
2022/08/27 04:55:41;;;;;;;14.63;11.50;;;20.00;99.90;;;;;;5098509;28;20484;-72
2022/08/27 04:58:08;;;;;;;16.63;13.20;;;20.00;99.90;;;;;;5097678;28;20457;-72
2022/08/27 05:00:41;;;;;;;14.67;13.07;;;20.00;99.90;;;;;;5096699;28;20578;-71
2022/08/27 05:03:08;;;;;;;16.57;13.53;;;19.90;99.90;;;;;;5098664;28;20445;-71
2022/08/27 05:05:35;;;;;;;17.23;13.87;;;19.80;99.90;;;;;;5095409;28;20784;-71
2022/08/27 05:08:05;;;;;;;14.50;12.60;;;19.80;99.90;;;;;;5097562;28;20445;-71
2022/08/27 05:10:38;;;;;;;15.70;12.87;;;19.80;99.90;;;;;;5094364;28;20488;-72
2022/08/27 05:13:05;;;;;;;14.43;11.67;;;19.80;99.90;;;;;;5097516;28;20448;-71
2022/08/27 05:15:32;;;;;;;12.57;11.37;;;20.00;99.90;;;;;;5095115;28;20449;-71
2022/08/27 05:17:59;;;;;;;14.57;11.50;;;20.00;99.90;;;;;;5097557;28;20495;-71
2022/08/27 05:20:26;;;;;;;14.90;12.23;;;20.00;99.90;;;;;;5096165;28;20454;-71
2022/08/27 05:22:53;;;;;;;16.47;12.73;;;20.00;99.90;;;;;;5098327;28;20525;-71
2022/08/27 05:25:22;;;;;;;18.70;14.47;;;20.00;99.90;;;;;;5098895;28;20458;-72
2022/08/27 05:27:49;;;;;;;17.17;12.33;;;19.90;99.90;;;;;;5097076;28;20461;-72
2022/08/27 05:30:16;;;;;;;14.13;12.63;;;19.90;99.90;;;;;;5098016;28;20999;-71
2022/08/27 05:32:43;;;;;;;14.63;10.93;;;20.00;99.90;;;;;;5095256;28;21208;-70
2022/08/27 05:35:11;;;;;;;23.23;14.07;;;20.10;99.90;;;;;;5097290;28;20540;-71
2022/08/27 05:37:38;;;;;;;14.80;11.47;;;20.10;99.90;;;;;;5095945;28;20493;-70
2022/08/27 05:40:06;;;;;;;16.87;11.90;;;20.00;99.90;;;;;;5097405;28;20442;-70
2022/08/27 05:42:34;;;;;;;16.77;14.73;;;20.10;99.90;;;;;;5095404;28;20536;-71
2022/08/27 05:45:01;;;;;;;14.60;12.27;;;20.10;99.90;;;;;;5097002;28;20446;-71
2022/08/27 05:47:28;;;;;;;14.07;11.93;;;20.10;99.90;;;;;;5095400;28;20453;-70
2022/08/27 05:49:55;;;;;;;13.37;10.80;;;20.20;99.90;;;;;;5097606;28;20543;-71
2022/08/27 05:52:22;;;;;;;14.60;11.53;;;20.30;99.90;;;;;;5095293;28;20450;-71
2022/08/27 05:54:49;;;;;;;13.87;10.93;;;20.30;99.90;;;;;;5097099;28;20453;-71
2022/08/27 05:57:16;;;;;;;20.23;14.50;;;20.40;99.90;;;;;;5096106;28;20453;-71
2022/08/27 06:02:29;;;;;;;11.87;8.83;;;20.40;99.90;;;;;;5096278;28;20437;-71
2022/08/27 06:04:56;;;;;;;11.37;8.63;;;20.50;99.90;;;;;;5097624;28;20473;-71
2022/08/27 06:07:23;;;;;;;16.90;12.43;;;20.50;99.90;;;;;;5100456;27;20488;-72
2022/08/27 06:09:50;;;;;;;14.53;12.03;;;20.60;99.90;;;;;;5127206;27;20478;-71
2022/08/27 06:12:17;;;;;;;15.87;10.33;;;20.70;99.90;;;;;;5127050;27;21543;-71
2022/08/27 06:14:45;;;;;;;12.87;11.20;;;20.60;99.90;;;;;;5134589;27;20443;-71
2022/08/27 06:17:12;;;;;;;13.40;11.87;;;20.50;99.90;;;;;;5115462;28;20439;-70
2022/08/27 06:19:41;;;;;;;15.33;13.70;;;20.50;99.90;;;;;;5118650;27;20521;-72
2022/08/27 06:22:08;;;;;;;12.70;11.40;;;20.40;99.90;;;;;;5116014;28;20544;-70
2022/08/27 06:24:36;;;;;;;12.40;10.47;;;20.40;99.90;;;;;;5132594;27;20920;-72
2022/08/27 06:27:02;;;;;;;18.50;10.63;;;20.70;99.90;;;;;;5120275;28;20524;-71
2022/08/27 06:29:29;;;;;;;11.97;8.77;;;20.80;99.90;;;;;;5131019;28;20532;-71
2022/08/27 06:31:58;;;;;;;16.47;12.00;;;20.90;99.90;;;;;;5121318;28;20444;-72
2022/08/27 06:34:25;;;;;;;12.87;10.70;;;21.00;99.90;;;;;;5127519;28;20479;-71
2022/08/27 06:36:52;;;;;;;11.90;9.90;;;21.00;99.90;;;;;;5121519;28;21070;-71
2022/08/27 06:39:19;;;;;;;15.30;11.37;;;21.00;99.90;;;;;;5115325;28;20445;-71
2022/08/27 06:41:48;;;;;;;14.37;10.87;;;21.10;99.90;;;;;;5131414;28;20480;-72
2022/08/27 06:44:16;;;;;;;13.67;11.97;;;21.00;99.90;;;;;;5127645;28;20715;-71
2022/08/27 06:46:43;;;;;;;15.67;11.07;;;20.80;99.90;;;;;;5123404;28;20441;-71
2022/08/27 06:49:13;;;;;;;11.10;9.67;;;20.60;99.90;;;;;;5118197;28;20929;-71
2022/08/27 06:51:43;;;;;;;15.50;12.53;;;20.60;99.90;;;;;;5116644;28;20505;-72
2022/08/27 06:54:11;;;;;;;16.60;12.23;;;20.50;99.90;;;;;;5125676;28;20452;-72
2022/08/27 06:56:38;;;;;;;14.87;9.93;;;20.70;99.90;;;;;;5125112;28;20441;-72
2022/08/27 06:59:08;;;;;;;14.20;10.70;;;20.80;99.90;;;;;;5116047;28;20529;-71
2022/08/27 07:01:37;;;;;;;12.85;11.65;;;21.10;99.90;;;;;;5127327;28;20445;-71
2022/08/27 07:04:08;;;;;;;16.23;12.60;;;21.40;99.90;;;;;;5128809;28;20764;-71
2022/08/27 07:06:37;;;;;;;14.13;11.60;;;21.50;99.90;;;;;;5124680;28;20457;-70
2022/08/27 07:09:05;;;;;;;12.70;10.00;;;21.40;99.90;;;;;;5117157;28;20441;-71
2022/08/27 07:11:32;;;;;;;12.23;9.23;;;21.00;99.90;;;;;;5127485;28;20447;-71
2022/08/27 07:14:00;;;;;;;11.33;8.90;;;21.10;99.90;;;;;;5123205;28;20863;-71
2022/08/27 07:16:29;;;;;;;9.73;8.73;;;21.50;99.90;;;;;;5127555;27;20447;-71
2022/08/27 07:19:00;;;;;;;10.73;9.63;;;21.70;99.90;;;;;;5135001;27;20464;-70
2022/08/27 07:21:28;;;;;;;7.53;6.73;;;21.80;99.90;;;;;;5132287;27;20887;-71
2022/08/27 07:23:58;;;;;;;11.63;7.67;;;21.90;99.90;;;;;;5120443;27;20476;-69
2022/08/27 07:26:25;;;;;;;10.00;9.00;;;21.90;99.90;;;;;;5099680;27;20456;-71
2022/08/27 07:28:53;;;;;;;9.50;8.50;;;21.90;99.90;;;;;;5110273;27;20444;-70
2022/08/27 07:31:23;;;;;;;12.23;9.43;;;21.80;99.90;;;;;;5135238;27;20553;-70
2022/08/27 07:33:51;;;;;;;10.90;8.70;;;21.90;99.90;;;;;;5124589;27;20447;-70
2022/08/27 07:36:18;;;;;;;17.47;9.67;;;21.70;99.90;;;;;;5132618;27;20455;-70
2022/08/27 07:38:45;;;;;;;7.27;6.53;;;21.50;99.90;;;;;;5123746;27;20445;-70
2022/08/27 07:41:13;;;;;;;11.13;10.07;;;21.30;99.90;;;;;;5132446;27;20441;-70
2022/08/27 07:46:25;;;;;;;11.23;9.00;;;21.30;99.90;;;;;;5125948;27;20908;-70
2022/08/27 07:48:55;;;;;;;10.23;9.20;;;21.50;99.90;;;;;;5134827;27;20517;-70
2022/08/27 07:51:24;;;;;;;9.80;8.57;;;21.50;99.90;;;;;;5133189;27;20526;-69
2022/08/27 07:53:52;;;;;;;11.60;8.60;;;21.50;99.90;;;;;;5120554;27;20937;-70
2022/08/27 07:56:22;;;;;;;14.80;9.50;;;21.70;99.90;;;;;;5121601;27;20654;-71
2022/08/27 07:58:49;;;;;;;9.63;8.63;;;21.80;99.90;;;;;;5122683;27;20448;-70
2022/08/27 08:01:16;;;;;;;13.90;11.00;;;22.00;99.90;;;;;;5126796;27;20448;-70
2022/08/27 08:03:46;;;;;;;10.90;9.80;;;22.20;99.90;;;;;;5120655;27;20447;-70
2022/08/27 08:06:17;;;;;;;8.87;8.03;;;22.10;99.90;;;;;;5116356;27;20476;-71
2022/08/27 08:08:44;;;;;;;12.90;10.60;;;22.20;99.90;;;;;;5119445;27;20891;-70
2022/08/27 08:11:15;;;;;;;11.37;10.23;;;21.90;99.90;;;;;;5126534;27;20522;-70
2022/08/27 08:13:44;;;;;;;12.00;10.30;;;21.90;99.90;;;;;;5120481;27;20467;-70
2022/08/27 08:16:12;;;;;;;11.10;9.50;;;22.00;99.90;;;;;;5111497;27;20950;-70
2022/08/27 08:18:39;;;;;;;10.27;8.87;;;22.00;99.90;;;;;;5136069;27;20451;-70
2022/08/27 08:21:09;;;;;;;11.40;9.27;;;22.10;99.90;;;;;;5122586;27;20768;-70
2022/08/27 08:23:37;;;;;;;14.17;11.20;;;22.10;99.90;;;;;;5137496;27;20867;-70
2022/08/27 08:26:04;;;;;;;12.10;10.23;;;22.00;99.90;;;;;;5120710;27;20539;-70
2022/08/27 08:28:31;;;;;;;8.87;7.83;;;22.00;99.90;;;;;;5137103;27;20508;-70
2022/08/27 08:31:00;;;;;;;15.83;11.70;;;22.00;99.90;;;;;;5135473;27;20580;-72
2022/08/27 08:33:27;;;;;;;12.87;11.20;;;21.90;99.90;;;;;;5100528;27;20440;-70
2022/08/27 08:35:54;;;;;;;13.27;11.87;;;21.70;99.90;;;;;;5118293;27;20449;-70
2022/08/27 08:38:21;;;;;;;14.23;9.07;;;21.70;99.90;;;;;;5135165;27;20531;-70
2022/08/27 08:40:53;;;;;;;13.13;11.77;;;21.60;99.90;;;;;;5118081;27;20762;-70
2022/08/27 08:43:29;;;;;;;12.00;10.70;;;21.60;99.90;;;;;;5135448;27;20436;-70
2022/08/27 08:45:58;;;;;;;10.73;8.23;;;21.40;99.90;;;;;;5118328;27;20445;-70
2022/08/27 08:48:28;;;;;;;15.73;13.40;;;21.40;99.90;;;;;;5137280;27;20471;-70
2022/08/27 08:51:01;;;;;;;17.00;14.87;;;21.40;99.90;;;;;;5134437;27;20922;-70
2022/08/27 08:53:37;;;;;;;20.87;17.40;;;21.40;99.90;;;;;;5119256;27;20501;-71
2022/08/27 08:56:09;;;;;;;15.77;12.00;;;21.30;99.90;;;;;;5132912;27;20482;-70
2022/08/27 08:58:46;;;;;;;16.07;11.43;;;21.30;99.90;;;;;;5120765;27;20497;-70
2022/08/27 09:01:17;;;;;;;14.97;13.17;;;21.30;99.90;;;;;;5117620;27;20445;-71
2022/08/27 09:03:52;;;;;;;22.07;15.07;;;21.40;99.90;;;;;;5119935;27;20884;-70
2022/08/27 09:06:27;;;;;;;12.23;10.80;;;21.50;99.90;;;;;;5133063;27;20512;-70
2022/08/27 09:08:55;;;;;;;13.77;10.30;;;21.40;99.90;;;;;;5119657;27;20440;-70
2022/08/27 09:11:28;;;;;;;13.20;11.00;;;21.50;99.90;;;;;;5134552;27;20536;-70
2022/08/27 09:13:58;;;;;;;13.17;10.23;;;21.60;99.90;;;;;;5119969;27;20523;-70
2022/08/27 09:16:25;;;;;;;12.17;10.07;;;21.80;99.90;;;;;;5118953;27;20498;-69
2022/08/27 09:18:54;;;;;;;9.47;8.43;;;21.90;99.90;;;;;;5129136;27;20437;-70
2022/08/27 09:21:31;;;;;;;13.37;9.27;;;22.00;99.90;;;;;;5117124;27;20521;-70
2022/08/27 09:24:07;;;;;;;11.80;10.10;;;21.90;99.90;;;;;;5121323;27;20451;-69
2022/08/27 09:26:39;;;;;;;11.40;9.57;;;21.60;99.90;;;;;;5131761;27;20492;-70
2022/08/27 09:29:18;;;;;;;13.00;7.53;;;21.60;99.90;;;;;;5130090;27;20439;-70
2022/08/27 09:31:48;;;;;;;8.67;7.60;;;21.60;99.90;;;;;;5119595;27;20980;-71
2022/08/27 09:34:16;;;;;;;8.33;7.47;;;21.50;99.90;;;;;;5124549;27;20442;-71
2022/08/27 09:36:54;;;;;;;8.03;6.00;;;21.50;99.90;;;;;;5131748;27;20508;-70
2022/08/27 09:39:34;;;;;;;6.53;5.93;;;21.40;99.90;;;;;;5115172;27;20456;-71
2022/08/27 09:42:02;;;;;;;7.53;6.93;;;21.20;99.90;;;;;;5102821;27;20440;-70
2022/08/27 09:44:31;;;;;;;6.57;5.37;;;21.20;99.90;;;;;;5128959;27;21676;-70
2022/08/27 09:47:01;;;;;;;3.33;3.03;;;21.10;99.90;;;;;;5118483;27;20443;-71
2022/08/27 09:49:33;;;;;;;4.03;3.67;;;21.10;99.90;;;;;;5128928;27;20558;-70
2022/08/27 09:52:01;;;;;;;3.90;3.60;;;21.20;99.90;;;;;;5122286;27;20482;-70
2022/08/27 09:54:40;;;;;;;4.13;3.57;;;21.30;99.90;;;;;;5129177;27;20437;-71
2022/08/27 09:57:11;;;;;;;4.37;3.87;;;21.40;99.90;;;;;;5115898;27;20448;-72
2022/08/27 09:59:43;;;;;;;3.37;3.07;;;21.40;99.90;;;;;;5117049;28;20751;-71
2022/08/27 10:02:16;;;;;;;3.10;2.47;;;21.40;99.90;;;;;;5117153;28;20502;-69
2022/08/27 10:04:47;;;;;;;3.00;2.07;;;21.30;99.90;;;;;;5116618;28;20448;-69
2022/08/27 10:07:29;;;;;;;2.90;2.20;;;21.40;99.90;;;;;;5116809;28;20561;-70
2022/08/27 10:10:06;;;;;;;3.33;2.60;;;21.40;99.90;;;;;;5114229;28;20478;-69
2022/08/27 10:12:40;;;;;;;3.17;2.20;;;21.50;99.90;;;;;;5116662;28;20511;-70
2022/08/27 10:15:09;;;;;;;5.87;4.07;;;21.50;99.90;;;;;;5114757;28;20533;-70
2022/08/27 10:17:48;;;;;;;4.17;3.87;;;21.40;99.90;;;;;;5115045;28;20473;-70
2022/08/27 10:20:22;;;;;;;4.00;3.60;;;21.30;99.90;;;;;;5114402;28;20822;-70
2022/08/27 10:22:58;;;;;;;3.43;3.13;;;21.20;99.90;;;;;;5115533;28;20587;-70
2022/08/27 10:25:37;;;;;;;4.23;3.70;;;21.10;99.90;;;;;;5114352;28;20456;-70
2022/08/27 10:28:18;;;;;;;4.73;3.60;;;21.30;99.90;;;;;;5121005;28;20924;-70
2022/08/27 10:30:57;;;;;;;3.70;3.40;;;21.60;99.90;;;;;;5124393;28;20472;-70
2022/08/27 10:33:31;;;;;;;4.00;3.20;;;21.70;99.90;;;;;;5122435;28;20496;-70
2022/08/27 10:36:06;;;;;;;5.07;4.17;;;21.70;99.90;;;;;;5121907;28;20535;-69
2022/08/27 10:38:38;;;;;;;5.90;5.30;;;21.90;99.90;;;;;;5119111;28;21045;-69
2022/08/27 10:41:15;;;;;;;26.10;19.10;;;22.00;99.90;;;;;;5121607;28;20492;-69
2022/08/27 10:44:00;;;;;;;8.27;7.00;;;22.00;99.90;;;;;;5112388;28;20479;-70
2022/08/27 10:46:47;;;;;;;6.73;4.57;;;22.20;99.90;;;;;;5127919;28;21009;-70
2022/08/27 10:49:25;;;;;;;5.57;4.97;;;22.10;99.90;;;;;;5120008;28;20932;-70
2022/08/27 10:52:02;;;;;;;4.60;3.47;;;22.00;99.90;;;;;;5125599;27;20222;-70
2022/08/27 10:54:36;;;;;;;7.10;5.13;;;22.00;99.90;;;;;;5115823;27;20564;-70
2022/08/27 10:57:08;;;;;;;3.97;3.60;;;21.90;99.90;;;;;;5110559;27;20515;-70
2022/08/27 10:59:45;;;;;;;8.43;6.37;;;21.90;99.90;;;;;;5128370;27;20572;-69
2022/08/27 11:02:20;;;;;;;6.23;5.63;;;21.90;99.90;;;;;;5090259;27;20807;-70
2022/08/27 11:04:51;;;;;;;5.13;4.63;;;21.90;99.90;;;;;;5107392;27;20505;-70
2022/08/27 11:07:24;;;;;;;7.97;5.53;;;21.90;99.90;;;;;;5114185;27;20555;-70
2022/08/27 11:09:57;;;;;;;7.33;5.30;;;21.90;99.90;;;;;;5114950;27;20460;-69
2022/08/27 11:12:31;;;;;;;6.17;4.70;;;21.90;99.90;;;;;;5118764;27;20595;-70
2022/08/27 11:15:02;;;;;;;9.07;7.30;;;21.70;99.90;;;;;;5109564;27;20912;-68
2022/08/27 11:17:32;;;;;;;6.37;5.77;;;21.60;99.90;;;;;;5110478;27;20508;-71
2022/08/27 11:20:05;;;;;;;6.00;5.50;;;21.60;99.90;;;;;;5111187;27;20883;-70
2022/08/27 11:22:37;;;;;;;7.73;6.17;;;21.50;99.90;;;;;;5103730;27;20528;-70
2022/08/27 11:25:13;;;;;;;6.20;5.60;;;21.50;99.90;;;;;;5112244;27;20850;-70
2022/08/27 11:27:42;;;;;;;6.40;5.63;;;21.50;99.90;;;;;;5106807;27;20536;-69
2022/08/27 11:30:18;;;;;;;8.13;6.53;;;21.60;99.90;;;;;;5133648;27;20931;-70
2022/08/27 11:32:59;;;;;;;6.17;5.63;;;21.60;99.90;;;;;;5117131;27;20452;-70
2022/08/27 11:35:40;;;;;;;8.93;5.87;;;21.50;99.90;;;;;;5113568;27;20461;-70
2022/08/27 11:38:44;;;;;;;9.07;5.93;;;21.50;99.90;;;;;;5133524;27;20471;-70
2022/08/27 11:41:33;;;;;;;6.07;5.57;;;21.60;99.90;;;;;;5117243;27;20459;-72
2022/08/27 11:44:00;;;;;;;7.43;6.70;;;21.60;99.90;;;;;;5123434;27;20429;-70
2022/08/27 11:46:39;;;;;;;8.60;7.17;;;21.60;99.90;;;;;;5110113;27;20461;-70
2022/08/27 11:49:05;;;;;;;6.60;5.97;;;21.50;99.90;;;;;;5113381;27;20523;-70
2022/08/27 11:51:35;;;;;;;8.73;5.83;;;21.40;99.90;;;;;;5122347;27;20502;-70
2022/08/27 11:54:06;;;;;;;8.57;6.83;;;21.50;99.90;;;;;;5126796;27;20891;-70
2022/08/27 11:56:40;;;;;;;5.90;5.07;;;21.60;99.90;;;;;;5126085;27;20938;-70
2022/08/27 11:59:20;;;;;;;8.70;6.87;;;21.70;99.90;;;;;;5118208;27;20493;-70
2022/08/27 12:01:47;;;;;;;9.13;8.27;;;21.80;99.90;;;;;;5124735;27;20458;-70
2022/08/27 12:04:24;;;;;;;7.73;6.33;;;21.80;99.90;;;;;;5116560;27;20541;-70
2022/08/27 12:07:00;;;;;;;7.80;7.07;;;21.80;99.90;;;;;;5125491;27;20475;-70
2022/08/27 12:09:29;;;;;;;7.57;6.77;;;21.70;99.90;;;;;;5121742;27;20449;-70
2022/08/27 12:12:03;;;;;;;7.77;6.37;;;21.80;99.90;;;;;;5122529;27;20514;-70
2022/08/27 12:14:42;;;;;;;8.23;7.13;;;21.90;99.90;;;;;;5124042;27;20517;-71
2022/08/27 12:17:23;;;;;;;9.30;8.00;;;21.80;99.90;;;;;;5123820;27;20512;-71
2022/08/27 12:20:04;;;;;;;7.30;5.70;;;21.90;99.90;;;;;;5133122;27;20530;-70
2022/08/27 12:25:58;;;;;;;9.67;7.57;;;21.90;99.90;;;;;;5110530;27;21075;-70
2022/08/27 12:28:26;;;;;;;9.80;8.90;;;22.00;99.90;;;;;;5130689;27;20445;-69
2022/08/27 12:30:55;;;;;;;8.40;7.40;;;22.00;99.90;;;;;;5115541;27;20513;-69
2022/08/27 12:33:29;;;;;;;8.10;7.30;;;22.00;99.90;;;;;;5117837;27;20441;-71
2022/08/27 12:36:04;;;;;;;7.13;6.43;;;22.10;99.90;;;;;;5115387;27;20452;-69
2022/08/27 12:38:42;;;;;;;10.53;8.17;;;22.10;99.90;;;;;;5117695;27;20453;-70
2022/08/27 12:41:10;;;;;;;9.50;7.97;;;22.10;99.90;;;;;;5118827;27;20435;-70
2022/08/27 12:43:42;;;;;;;10.17;9.20;;;21.80;99.90;;;;;;5130892;27;20440;-70
2022/08/27 12:46:15;;;;;;;9.33;8.30;;;21.70;99.90;;;;;;5107614;27;20449;-70
2022/08/27 12:48:44;;;;;;;10.57;8.40;;;21.60;99.90;;;;;;5129934;27;20876;-70
2022/08/27 12:51:16;;;;;;;9.50;8.60;;;21.60;99.90;;;;;;5132732;27;20526;-71
2022/08/27 12:53:46;;;;;;;10.27;8.47;;;21.60;99.90;;;;;;5117115;27;20469;-71
2022/08/27 12:56:30;;;;;;;9.20;8.07;;;21.70;99.90;;;;;;5097270;28;20834;-70
2022/08/27 12:59:06;;;;;;;9.80;8.13;;;21.90;99.90;;;;;;5114340;27;20476;-70
2022/08/27 13:01:48;;;;;;;8.80;7.90;;;22.00;99.90;;;;;;5115968;27;20484;-70
2022/08/27 13:04:21;;;;;;;11.50;8.17;;;22.00;99.90;;;;;;5130742;27;20464;-70